createdAt,value
2023-01-30T00:01:17.448Z,14.65
2023-01-30T00:03:47.673Z,15.32
2023-01-30T00:06:16.885Z,15.40
2023-01-30T00:08:45.697Z,15.35
2023-01-30T00:11:16.129Z,15.47
2023-01-30T00:13:45.519Z,16.05
2023-01-30T00:16:15.483Z,16.13
2023-01-30T00:18:44.618Z,16.40
2023-01-30T00:21:16.379Z,15.88
2023-01-30T00:23:45.494Z,16.05
2023-01-30T00:26:14.232Z,15.75
2023-01-30T00:28:42.656Z,15.70
2023-01-30T00:31:11.435Z,14.15
2023-01-30T00:33:39.980Z,14.43
2023-01-30T00:36:09.434Z,13.63
2023-01-30T00:38:39.149Z,13.00
2023-01-30T00:43:53.713Z,14.20
2023-01-30T00:46:44.971Z,14.10
2023-01-30T00:49:13.855Z,13.35
2023-01-30T00:51:42.223Z,14.53
2023-01-30T00:54:12.449Z,14.18
2023-01-30T00:56:40.848Z,13.57
2023-01-30T00:59:09.511Z,13.30
2023-01-30T01:01:38.823Z,13.45
2023-01-30T01:04:08.761Z,12.27
2023-01-30T01:06:37.485Z,12.93
2023-01-30T01:09:06.274Z,13.23
2023-01-30T01:11:36.789Z,13.47
2023-01-30T01:14:06.869Z,12.52
2023-01-30T01:16:36.462Z,13.45
2023-01-30T01:21:34.238Z,12.07
2023-01-30T01:24:02.613Z,12.35
2023-01-30T01:26:31.052Z,12.68
2023-01-30T01:29:00.872Z,12.80
2023-01-30T01:33:58.095Z,11.00
2023-01-30T01:36:52.223Z,9.97
2023-01-30T01:39:14.913Z,13.07
2023-01-30T01:41:42.266Z,12.95
2023-01-30T01:44:13.959Z,12.82
2023-01-30T01:46:47.771Z,14.93
2023-01-30T01:49:20.276Z,13.50
2023-01-30T01:51:55.176Z,14.23
2023-01-30T01:54:28.879Z,13.85
2023-01-30T01:56:57.278Z,13.70
2023-01-30T01:59:31.215Z,12.00
2023-01-30T02:02:05.086Z,13.48
2023-01-30T02:04:51.865Z,13.55
2023-01-30T02:07:22.805Z,13.80
2023-01-30T02:09:52.623Z,14.75
2023-01-30T02:12:21.322Z,14.57
2023-01-30T02:14:51.937Z,13.85
2023-01-30T02:17:20.898Z,14.88
2023-01-30T02:19:55.410Z,14.82
2023-01-30T02:22:51.077Z,15.70
2023-01-30T02:25:52.003Z,15.65
2023-01-30T02:29:00.388Z,14.73
2023-01-30T02:31:36.935Z,16.27
2023-01-30T02:34:18.788Z,15.25
2023-01-30T02:36:55.557Z,16.17
2023-01-30T02:39:35.621Z,14.55
2023-01-30T02:42:12.667Z,16.48
2023-01-30T02:44:51.934Z,17.67
2023-01-30T02:47:26.550Z,15.85
2023-01-30T02:50:00.651Z,16.30
2023-01-30T02:52:31.122Z,16.58
2023-01-30T02:54:59.568Z,15.68
2023-01-30T02:57:28.155Z,17.38
2023-01-30T03:00:00.283Z,16.23
2023-01-30T03:02:50.636Z,15.75
2023-01-30T03:05:39.053Z,16.23
2023-01-30T03:08:21.009Z,15.93
2023-01-30T03:10:56.823Z,15.63
2023-01-30T03:13:31.017Z,16.45
2023-01-30T03:16:05.015Z,15.40
2023-01-30T03:18:34.740Z,16.70
2023-01-30T03:23:34.478Z,14.07
2023-01-30T03:26:06.145Z,15.35
2023-01-30T03:28:35.934Z,16.23
2023-01-30T03:33:34.169Z,14.82
2023-01-30T03:36:02.699Z,15.65
2023-01-30T03:38:31.075Z,17.42
2023-01-30T03:40:59.447Z,17.00
2023-01-30T03:43:28.075Z,17.98
2023-01-30T03:45:56.508Z,17.30
2023-01-30T03:48:24.929Z,15.95
2023-01-30T03:50:54.685Z,17.90
2023-01-30T03:53:23.134Z,18.10
2023-01-30T03:55:51.544Z,17.25
2023-01-30T03:58:19.914Z,16.33
2023-01-30T04:00:48.278Z,17.85
2023-01-30T04:03:16.695Z,17.08
2023-01-30T04:05:45.116Z,17.38
2023-01-30T04:08:14.825Z,16.52
2023-01-30T04:13:11.271Z,17.08
2023-01-30T04:15:39.661Z,17.10
2023-01-30T04:18:08.168Z,17.02
2023-01-30T04:20:36.930Z,15.40
2023-01-30T04:23:05.412Z,16.23
2023-01-30T04:25:35.418Z,16.65
2023-01-30T04:28:03.788Z,14.70
2023-01-30T04:30:32.255Z,15.63
2023-01-30T04:33:00.638Z,15.77
2023-01-30T04:35:28.986Z,14.98
2023-01-30T04:37:57.354Z,15.70
2023-01-30T04:40:25.721Z,15.00
2023-01-30T04:42:55.381Z,15.80
2023-01-30T04:45:23.826Z,14.18
2023-01-30T04:47:52.328Z,14.63
2023-01-30T04:50:20.686Z,14.98
2023-01-30T04:52:49.064Z,13.68
2023-01-30T04:55:17.676Z,15.02
2023-01-30T04:57:46.208Z,15.18
2023-01-30T05:00:16.892Z,14.75
2023-01-30T05:02:45.287Z,14.65
2023-01-30T05:05:13.795Z,15.20
2023-01-30T05:07:42.181Z,14.15
2023-01-30T05:10:11.948Z,14.10
2023-01-30T05:12:40.482Z,14.02
2023-01-30T05:15:09.808Z,14.52
2023-01-30T05:17:40.926Z,15.40
2023-01-30T05:20:12.558Z,14.95
2023-01-30T05:22:41.024Z,14.18
2023-01-30T05:25:10.491Z,14.30
2023-01-30T05:27:38.862Z,14.50
2023-01-30T05:30:08.495Z,14.35
2023-01-30T05:35:07.848Z,13.90
2023-01-30T05:37:37.739Z,14.05
2023-01-30T05:40:07.304Z,13.25
2023-01-30T05:42:35.684Z,13.68
2023-01-30T05:45:04.168Z,14.00
2023-01-30T05:47:32.539Z,13.48
2023-01-30T05:50:01.095Z,13.90
2023-01-30T05:52:30.865Z,13.52
2023-01-30T05:54:59.577Z,13.50
2023-01-30T05:57:27.945Z,13.80
2023-01-30T05:59:56.319Z,14.40
2023-01-30T06:02:24.731Z,14.05
2023-01-30T06:04:53.082Z,14.73
2023-01-30T06:07:21.435Z,13.40
2023-01-30T06:09:51.141Z,16.48
2023-01-30T06:14:47.654Z,13.85
2023-01-30T06:17:16.026Z,13.82
2023-01-30T06:19:44.393Z,14.27
2023-01-30T06:22:13.338Z,14.32
2023-01-30T06:24:41.708Z,14.55
2023-01-30T06:27:11.485Z,14.55
2023-01-30T06:29:39.899Z,14.95
2023-01-30T06:32:09.463Z,17.17
2023-01-30T06:34:37.868Z,15.30
2023-01-30T06:37:06.231Z,16.67
2023-01-30T06:39:34.576Z,16.50
2023-01-30T06:42:02.943Z,17.23
2023-01-30T06:44:32.760Z,17.50
2023-01-30T06:47:01.217Z,17.85
2023-01-30T06:49:29.599Z,18.45
2023-01-30T06:51:58.380Z,17.90
2023-01-30T06:54:26.754Z,16.43
2023-01-30T06:56:55.311Z,18.00
2023-01-30T06:59:23.938Z,17.25
2023-01-30T07:01:54.083Z,19.02
2023-01-30T07:04:22.589Z,17.02
2023-01-30T07:06:51.019Z,17.60
2023-01-30T07:09:19.430Z,17.98
2023-01-30T07:11:49.549Z,16.75
2023-01-30T07:14:17.910Z,16.25
2023-01-30T07:16:46.351Z,17.13
2023-01-30T07:19:16.068Z,17.35
2023-01-30T07:24:12.541Z,16.70
2023-01-30T07:26:40.945Z,18.80
2023-01-30T07:29:09.360Z,16.50
2023-01-30T07:31:37.730Z,18.48
2023-01-30T07:34:06.368Z,17.70
2023-01-30T07:36:37.696Z,16.58
2023-01-30T07:39:06.311Z,17.35
2023-01-30T07:41:34.782Z,18.63
2023-01-30T07:44:03.288Z,17.85
2023-01-30T07:46:35.055Z,17.85
2023-01-30T07:49:04.373Z,17.40
2023-01-30T07:51:33.328Z,18.35
2023-01-30T07:54:03.957Z,17.33
2023-01-30T07:56:32.649Z,16.25
2023-01-30T07:59:01.014Z,11.98
2023-01-30T08:01:29.822Z,11.35
2023-01-30T08:03:58.231Z,11.43
2023-01-30T08:06:26.566Z,9.18
2023-01-30T08:08:54.903Z,11.10
2023-01-30T08:11:24.624Z,11.27
2023-01-30T08:16:21.075Z,9.55
2023-01-30T08:18:49.453Z,9.70
2023-01-30T08:21:17.810Z,10.55
2023-01-30T08:23:46.264Z,9.90
2023-01-30T08:26:14.779Z,10.45
2023-01-30T08:28:44.536Z,10.45
2023-01-30T08:33:42.225Z,11.43
2023-01-30T08:36:11.039Z,10.98
2023-01-30T08:38:39.461Z,10.37
2023-01-30T08:41:09.620Z,8.88
2023-01-30T08:43:37.964Z,9.45
2023-01-30T08:46:07.891Z,8.82
2023-01-30T08:48:49.228Z,9.25
2023-01-30T08:51:18.865Z,8.88
2023-01-30T08:53:47.662Z,8.30
2023-01-30T08:56:16.036Z,7.07
2023-01-30T08:58:46.623Z,8.95
2023-01-30T09:01:17.326Z,8.48
2023-01-30T09:03:45.870Z,7.78
2023-01-30T09:06:14.296Z,7.47
2023-01-30T09:08:42.758Z,6.93
2023-01-30T09:11:12.871Z,6.80
2023-01-30T09:13:43.712Z,6.50
2023-01-30T09:16:12.309Z,6.45
2023-01-30T09:18:43.618Z,6.75
2023-01-30T09:21:13.434Z,6.07
2023-01-30T09:23:42.429Z,6.13
2023-01-30T09:26:11.175Z,6.20
2023-01-30T09:28:40.561Z,6.13
2023-01-30T09:31:09.213Z,6.57
2023-01-30T09:33:37.984Z,6.50
2023-01-30T09:36:09.193Z,7.45
2023-01-30T09:38:39.401Z,6.10
2023-01-30T09:41:28.724Z,6.35
2023-01-30T09:44:10.542Z,6.00
2023-01-30T09:46:48.095Z,5.47
2023-01-30T09:49:28.764Z,4.50
2023-01-30T09:52:10.083Z,5.97
2023-01-30T09:54:41.747Z,5.65
2023-01-30T09:57:27.279Z,5.78
2023-01-30T11:56:03.865Z,3.40
2023-01-30T12:05:56.805Z,3.63
2023-01-30T12:08:41.066Z,3.40
2023-01-30T12:11:42.147Z,3.20
2023-01-30T12:14:34.211Z,3.72
2023-01-30T12:17:30.581Z,3.47
2023-01-30T12:23:26.322Z,3.77
2023-01-30T12:26:03.797Z,3.70
2023-01-30T12:28:38.909Z,3.05
2023-01-30T12:31:13.587Z,3.58
2023-01-30T12:33:42.433Z,3.05
2023-01-30T12:36:30.215Z,3.40
2023-01-30T12:39:15.035Z,3.55
2023-01-30T12:41:59.723Z,3.35
2023-01-30T12:44:50.534Z,3.53
2023-01-30T12:47:36.046Z,3.30
2023-01-30T12:50:21.383Z,3.22
2023-01-30T12:53:05.428Z,3.67
2023-01-30T12:56:02.102Z,3.60
2023-01-30T12:58:48.146Z,4.30
2023-01-30T13:01:28.317Z,4.43
2023-01-30T13:04:03.993Z,3.20
2023-01-30T13:07:02.120Z,3.83
2023-01-30T13:13:29.313Z,4.15
2023-01-30T13:16:17.844Z,3.85
2023-01-30T13:22:42.107Z,4.35
2023-01-30T13:26:00.046Z,3.50
2023-01-30T13:31:12.309Z,3.70
2023-01-30T13:33:57.547Z,2.53
2023-01-30T13:37:09.744Z,3.08
2023-01-30T13:54:26.075Z,4.10
2023-01-30T14:20:20.021Z,3.50
2023-01-30T14:23:37.631Z,3.72
2023-01-30T14:26:11.544Z,3.28
2023-01-30T14:28:49.028Z,3.63
2023-01-30T14:35:15.590Z,3.33
2023-01-30T14:38:12.505Z,2.60
2023-01-30T14:40:50.900Z,3.15
2023-01-30T14:43:53.120Z,3.00
2023-01-30T14:46:57.892Z,2.78
2023-01-30T14:49:33.845Z,2.35
2023-01-30T14:52:05.578Z,2.75
2023-01-30T14:54:44.345Z,2.80
2023-01-30T14:57:20.888Z,3.30
2023-01-30T15:00:12.213Z,3.13
2023-01-30T15:02:44.974Z,2.55
2023-01-30T15:05:19.423Z,3.13
2023-01-30T15:07:51.494Z,2.70
2023-01-30T15:10:39.971Z,4.10
2023-01-30T15:13:46.068Z,2.63
2023-01-30T15:16:44.033Z,2.92
2023-01-30T15:19:25.551Z,2.75
2023-01-30T15:22:05.279Z,2.63
2023-01-30T15:27:20.462Z,3.60
2023-01-30T15:30:18.080Z,3.80
2023-01-30T15:32:47.091Z,3.15
2023-01-30T15:35:25.476Z,3.28
2023-01-30T15:37:55.295Z,3.15
2023-01-30T15:45:37.798Z,3.58
2023-01-30T15:48:27.495Z,4.57
2023-01-30T15:50:58.793Z,2.63
2023-01-30T15:53:32.120Z,3.70
2023-01-30T15:56:02.855Z,3.63
2023-01-30T15:58:36.135Z,6.57
2023-01-30T16:01:05.458Z,3.17
2023-01-30T16:03:37.836Z,5.90
2023-01-30T16:06:06.899Z,7.47
2023-01-30T16:08:37.381Z,4.20
2023-01-30T16:11:06.179Z,3.38
2023-01-30T16:13:36.849Z,3.15
2023-01-30T16:16:09.664Z,3.90
2023-01-30T16:18:43.491Z,14.48
2023-01-30T16:21:19.158Z,6.55
2023-01-30T16:23:56.141Z,6.65
2023-01-30T16:26:25.247Z,8.00
2023-01-30T16:29:02.347Z,11.30
2023-01-30T16:31:33.891Z,5.03
2023-01-30T16:34:02.543Z,4.15
2023-01-30T16:36:33.994Z,4.10
2023-01-30T16:39:03.253Z,3.65
2023-01-30T16:41:34.331Z,3.70
2023-01-30T16:44:17.768Z,4.57
2023-01-30T16:46:48.996Z,3.75
2023-01-30T16:49:22.575Z,4.05
2023-01-30T16:51:59.655Z,4.43
2023-01-30T16:54:31.892Z,3.75
2023-01-30T16:57:02.876Z,4.30
2023-01-30T16:59:34.665Z,5.25
2023-01-30T17:02:06.347Z,4.82
2023-01-30T17:04:41.909Z,4.85
2023-01-30T17:07:34.145Z,4.72
2023-01-30T17:10:02.592Z,6.82
2023-01-30T17:12:49.564Z,6.53
2023-01-30T17:15:41.456Z,7.80
2023-01-30T17:18:10.887Z,7.32
2023-01-30T17:20:42.812Z,7.63
2023-01-30T17:23:16.849Z,8.55
2023-01-30T17:25:47.976Z,7.63
2023-01-30T17:28:24.181Z,6.43
2023-01-30T17:30:54.312Z,7.80
2023-01-30T17:33:23.155Z,6.20
2023-01-30T17:35:51.586Z,5.82
2023-01-30T17:38:20.009Z,7.53
2023-01-30T17:40:52.221Z,5.47
2023-01-30T17:43:20.832Z,5.60
2023-01-30T17:45:49.445Z,4.65
2023-01-30T17:48:19.211Z,4.45
2023-01-30T17:53:15.989Z,5.13
2023-01-30T17:55:44.438Z,4.13
2023-01-30T17:58:18.003Z,4.88
2023-01-30T18:00:46.535Z,2.97
2023-01-30T18:03:15.858Z,3.38
2023-01-30T18:05:46.387Z,3.63
2023-01-30T18:08:15.062Z,3.47
2023-01-30T18:10:43.553Z,3.55
2023-01-30T18:13:12.230Z,3.70
2023-01-30T18:15:40.923Z,3.92
2023-01-30T18:18:12.903Z,4.30
2023-01-30T18:20:41.435Z,4.97
2023-01-30T18:23:11.369Z,5.43
2023-01-30T18:29:43.951Z,5.88
2023-01-30T18:32:12.575Z,4.97
2023-01-30T18:34:41.828Z,5.43
2023-01-30T18:37:10.500Z,5.00
2023-01-30T18:39:40.570Z,5.03
2023-01-30T18:42:08.980Z,4.47
2023-01-30T18:44:37.567Z,4.88
2023-01-30T18:47:06.398Z,4.47
2023-01-30T18:49:34.879Z,4.47
2023-01-30T18:52:03.625Z,3.60
2023-01-30T18:54:32.494Z,4.95
2023-01-30T18:57:03.496Z,4.20
2023-01-30T18:59:32.076Z,3.50
2023-01-30T19:02:00.567Z,3.60
2023-01-30T19:04:29.240Z,2.97
2023-01-30T19:06:57.832Z,4.40
2023-01-30T19:09:27.190Z,3.78
2023-01-30T19:12:13.609Z,3.33
2023-01-30T19:14:43.719Z,3.20
2023-01-30T19:17:14.059Z,2.72
2023-01-30T19:19:43.441Z,3.13
2023-01-30T19:22:12.015Z,3.13
2023-01-30T19:24:40.520Z,3.42
2023-01-30T19:27:13.965Z,2.53
2023-01-30T19:29:43.958Z,3.22
2023-01-30T19:32:12.427Z,3.50
2023-01-30T19:34:40.933Z,3.05
2023-01-30T19:37:09.372Z,2.80
2023-01-30T19:39:38.150Z,3.45
2023-01-30T19:42:06.681Z,2.55
2023-01-30T19:44:35.427Z,2.47
2023-01-30T19:47:05.334Z,4.20
2023-01-30T19:52:05.528Z,3.20
2023-01-30T19:54:34.376Z,3.13
2023-01-30T19:57:03.046Z,3.45
2023-01-30T19:59:31.622Z,3.80
2023-01-30T20:02:00.217Z,4.32
2023-01-30T20:04:30.214Z,4.07
2023-01-30T20:06:59.081Z,2.80
2023-01-30T20:09:27.923Z,3.70
2023-01-30T20:11:56.602Z,4.32
2023-01-30T20:14:25.308Z,4.53
2023-01-30T20:16:53.877Z,5.60
2023-01-30T20:19:22.486Z,3.67
2023-01-30T20:21:52.989Z,3.63
2023-01-30T20:24:21.401Z,3.30
2023-01-30T20:26:50.148Z,4.07
2023-01-30T20:29:18.909Z,3.08
2023-01-30T20:31:47.478Z,4.10
2023-01-30T20:34:16.388Z,2.90
2023-01-30T20:36:45.215Z,3.10
2023-01-30T20:39:17.075Z,3.85
2023-01-30T20:41:46.098Z,3.90
2023-01-30T20:44:17.309Z,4.75
2023-01-30T20:46:49.794Z,3.80
2023-01-30T20:49:20.944Z,3.28
2023-01-30T20:51:51.700Z,3.17
2023-01-30T20:54:23.735Z,2.92
2023-01-30T20:56:54.652Z,3.10
2023-01-30T20:59:27.317Z,4.28
2023-01-30T21:01:55.956Z,3.58
2023-01-30T21:04:25.450Z,3.05
2023-01-30T21:06:54.356Z,2.67
2023-01-30T21:09:25.148Z,3.55
2023-01-30T21:11:55.299Z,3.28
2023-01-30T21:14:26.295Z,3.28
2023-01-30T21:16:55.228Z,3.45
2023-01-30T21:19:23.931Z,2.83
2023-01-30T21:21:55.138Z,2.95
2023-01-30T21:24:27.508Z,3.15
2023-01-30T21:26:57.130Z,3.85
2023-01-30T21:29:27.345Z,4.38
2023-01-30T21:31:56.685Z,2.65
2023-01-30T21:34:25.536Z,3.40
2023-01-30T21:37:25.930Z,2.95
2023-01-30T21:40:13.129Z,3.58
2023-01-30T21:42:59.154Z,3.20
2023-01-30T21:45:27.752Z,2.92
2023-01-30T21:47:56.775Z,3.50
2023-01-30T21:50:27.979Z,3.08
2023-01-30T21:52:56.558Z,3.40
2023-01-30T21:55:26.807Z,4.32
2023-01-30T21:57:55.580Z,2.70
2023-01-30T22:00:24.189Z,3.50
2023-01-30T22:02:52.731Z,4.57
2023-01-30T22:05:21.616Z,2.35
2023-01-30T22:07:50.594Z,2.13
2023-01-30T22:10:19.430Z,4.28
2023-01-30T22:12:50.394Z,2.55
2023-01-30T22:15:20.786Z,3.83
2023-01-30T22:17:49.880Z,3.15
2023-01-30T22:20:18.795Z,2.83
2023-01-30T22:22:47.429Z,3.00
2023-01-30T22:25:15.985Z,2.42
2023-01-30T22:27:44.987Z,2.22
2023-01-30T22:30:18.797Z,3.08
2023-01-30T22:32:49.850Z,2.80
2023-01-30T22:35:18.800Z,2.60
2023-01-30T22:37:47.604Z,3.50
2023-01-30T22:40:16.406Z,2.40
2023-01-30T22:42:48.596Z,3.17
2023-01-30T22:45:19.055Z,3.55
2023-01-30T22:47:47.654Z,2.33
2023-01-30T22:50:16.265Z,2.55
2023-01-30T22:52:44.937Z,2.78
2023-01-30T22:55:13.615Z,2.60
2023-01-30T22:57:42.393Z,3.05
2023-01-30T23:00:12.087Z,2.33
2023-01-30T23:02:42.279Z,2.92
2023-01-30T23:05:11.440Z,2.65
2023-01-30T23:07:40.056Z,2.38
2023-01-30T23:10:10.483Z,2.03
2023-01-30T23:12:56.334Z,2.78
2023-01-30T23:15:24.846Z,3.00
2023-01-30T23:18:12.607Z,2.40
2023-01-30T23:20:41.070Z,2.47
2023-01-30T23:23:09.621Z,2.38
2023-01-30T23:25:41.254Z,2.53
2023-01-30T23:28:10.298Z,3.17
2023-01-30T23:30:39.455Z,2.20
2023-01-30T23:33:09.563Z,2.90
2023-01-30T23:35:38.892Z,2.45
2023-01-30T23:38:16.510Z,3.58
2023-01-30T23:40:45.035Z,2.33
2023-01-30T23:43:13.534Z,3.10
2023-01-30T23:45:42.384Z,2.78
2023-01-30T23:48:12.318Z,2.60
2023-01-30T23:50:42.297Z,3.22
2023-01-30T23:53:12.018Z,3.08
2023-01-30T23:58:13.305Z,5.85
